createdAt,value
2022-07-28T00:00:33.498Z,18.60
2022-07-28T00:04:15.575Z,18.50
2022-07-28T00:08:17.518Z,18.50
2022-07-28T00:11:59.358Z,18.50
2022-07-28T00:15:41.139Z,18.50
2022-07-28T00:20:05.789Z,18.50
2022-07-28T00:23:47.565Z,18.40
2022-07-28T00:27:29.880Z,18.40
2022-07-28T00:31:14.985Z,18.40
2022-07-28T00:34:57.023Z,18.40
2022-07-28T00:38:57.990Z,18.30
2022-07-28T00:42:39.775Z,18.40
2022-07-28T00:46:22.572Z,18.30
2022-07-28T00:51:01.877Z,18.20
2022-07-28T00:54:43.906Z,18.20
2022-07-28T00:58:47.312Z,18.30
2022-07-28T01:02:29.235Z,18.20
2022-07-28T01:06:37.139Z,18.20
2022-07-28T01:11:00.716Z,18.20
2022-07-28T01:14:49.218Z,18.20
2022-07-28T01:19:10.402Z,18.20
2022-07-28T01:23:04.293Z,18.20
2022-07-28T01:27:02.470Z,18.20
2022-07-28T01:31:22.168Z,18.30
2022-07-28T01:35:13.203Z,18.20
2022-07-28T01:38:57.231Z,18.20
2022-07-28T01:42:45.100Z,18.20
2022-07-28T01:46:27.657Z,18.20
2022-07-28T01:51:05.830Z,18.10
2022-07-28T01:54:47.687Z,18.10
2022-07-28T01:58:34.577Z,18.10
2022-07-28T02:02:17.627Z,18.10
2022-07-28T02:06:08.000Z,18.10
2022-07-28T02:09:50.010Z,18.10
2022-07-28T02:13:33.179Z,18.00
2022-07-28T02:17:16.567Z,18.10
2022-07-28T02:20:59.920Z,18.10
2022-07-28T02:24:41.934Z,18.00
2022-07-28T02:28:26.078Z,18.00
2022-07-28T02:32:24.022Z,18.00
2022-07-28T02:36:20.366Z,18.00
2022-07-28T02:40:58.561Z,18.00
2022-07-28T02:44:42.214Z,18.00
2022-07-28T02:48:43.988Z,18.00
2022-07-28T02:52:25.930Z,18.00
2022-07-28T02:56:07.707Z,18.00
2022-07-28T02:59:50.725Z,17.90
2022-07-28T03:03:32.509Z,17.90
2022-07-28T03:07:14.365Z,17.90
2022-07-28T03:11:12.394Z,17.90
2022-07-28T03:14:54.673Z,17.90
2022-07-28T03:18:36.670Z,17.90
2022-07-28T03:22:18.464Z,17.80
2022-07-28T03:26:07.053Z,17.80
2022-07-28T03:29:54.191Z,17.80
2022-07-28T03:33:35.957Z,17.70
2022-07-28T03:37:21.151Z,17.70
2022-07-28T03:41:21.807Z,17.70
2022-07-28T03:45:03.862Z,17.60
2022-07-28T03:48:47.941Z,17.60
2022-07-28T03:52:29.859Z,17.70
2022-07-28T03:56:11.657Z,17.60
2022-07-28T03:59:54.511Z,17.60
2022-07-28T04:03:42.770Z,17.60
2022-07-28T04:07:26.344Z,17.60
2022-07-28T04:11:09.471Z,17.60
2022-07-28T04:14:51.290Z,17.60
2022-07-28T04:18:35.556Z,17.60
2022-07-28T04:22:17.372Z,17.60
2022-07-28T04:25:59.209Z,17.60
2022-07-28T04:29:42.144Z,17.60
2022-07-28T04:33:24.857Z,17.50
2022-07-28T04:37:06.682Z,17.50
2022-07-28T04:40:49.911Z,17.50
2022-07-28T04:44:31.703Z,17.50
2022-07-28T04:48:15.979Z,17.50
2022-07-28T04:51:59.732Z,17.50
2022-07-28T04:55:41.551Z,17.60
2022-07-28T04:59:25.747Z,17.50
2022-07-28T05:03:09.425Z,17.50
2022-07-28T05:06:51.198Z,17.50
2022-07-28T05:10:35.196Z,17.50
2022-07-28T05:14:17.558Z,17.50
2022-07-28T05:18:39.148Z,17.50
2022-07-28T05:22:20.971Z,17.50
2022-07-28T05:26:04.544Z,17.50
2022-07-28T05:29:47.019Z,17.50
2022-07-28T05:33:31.871Z,17.50
2022-07-28T05:37:13.955Z,17.50
2022-07-28T05:40:56.985Z,17.50
2022-07-28T05:44:38.750Z,17.50
2022-07-28T05:48:41.675Z,17.60
2022-07-28T05:52:23.498Z,17.60
2022-07-28T05:56:05.481Z,17.60
2022-07-28T05:59:51.454Z,17.60
2022-07-28T06:03:39.803Z,17.70
2022-07-28T06:07:23.423Z,17.70
2022-07-28T06:11:25.208Z,17.80
2022-07-28T06:15:08.325Z,17.80
2022-07-28T06:18:51.582Z,17.80
2022-07-28T06:22:46.989Z,18.00
2022-07-28T06:26:28.811Z,18.00
2022-07-28T06:30:11.225Z,18.10
2022-07-28T06:33:53.007Z,18.20
2022-07-28T06:37:34.944Z,18.30
2022-07-28T06:41:35.713Z,18.40
2022-07-28T06:45:19.550Z,18.50
2022-07-28T06:49:04.432Z,18.60
2022-07-28T06:52:46.265Z,18.70
2022-07-28T06:56:28.112Z,18.70
2022-07-28T07:00:14.165Z,18.80
2022-07-28T07:03:56.035Z,18.90
2022-07-28T07:07:42.819Z,19.00
2022-07-28T07:11:25.248Z,19.00
2022-07-28T07:15:07.578Z,19.20
2022-07-28T07:18:53.108Z,19.20
2022-07-28T07:22:35.511Z,19.30
2022-07-28T07:26:17.411Z,19.40
2022-07-28T07:30:01.235Z,19.60
2022-07-28T07:33:43.151Z,19.60
2022-07-28T07:37:25.053Z,19.70
2022-07-28T07:41:09.107Z,19.90
2022-07-28T07:44:50.892Z,20.00
2022-07-28T07:48:33.202Z,20.10
2022-07-28T07:52:15.040Z,20.20
2022-07-28T07:55:56.976Z,20.30
2022-07-28T07:59:38.858Z,20.40
2022-07-28T08:03:22.439Z,20.50
2022-07-28T08:07:04.740Z,20.70
2022-07-28T08:10:51.084Z,20.80
2022-07-28T08:14:32.908Z,21.00
2022-07-28T08:18:15.118Z,21.10
2022-07-28T08:21:57.142Z,21.30
2022-07-28T08:25:39.071Z,21.40
2022-07-28T08:29:22.279Z,21.60
2022-07-28T08:33:04.143Z,21.80
2022-07-28T08:36:45.943Z,21.90
2022-07-28T08:40:29.208Z,22.10
2022-07-28T08:44:12.191Z,22.30
2022-07-28T08:48:07.700Z,22.40
2022-07-28T08:51:50.253Z,22.60
2022-07-28T08:55:32.489Z,22.70
2022-07-28T08:59:14.450Z,22.80
2022-07-28T09:02:56.409Z,23.00
2022-07-28T09:06:42.103Z,23.10
2022-07-28T09:10:23.970Z,23.30
2022-07-28T09:14:06.066Z,23.50
2022-07-28T09:17:47.829Z,23.60
2022-07-28T09:21:29.962Z,23.80
2022-07-28T09:25:22.171Z,23.90
2022-07-28T09:29:04.299Z,24.00
2022-07-28T09:32:46.067Z,24.10
2022-07-28T09:36:28.834Z,24.20
2022-07-28T09:40:11.196Z,24.30
2022-07-28T09:43:55.397Z,24.40
2022-07-28T09:47:40.445Z,24.50
2022-07-28T09:51:33.504Z,24.60
2022-07-28T09:55:15.403Z,24.60
2022-07-28T09:58:59.218Z,24.60
2022-07-28T10:02:41.091Z,24.60
2022-07-28T10:06:34.077Z,24.50
2022-07-28T10:10:16.228Z,24.50
2022-07-28T10:14:06.136Z,24.50
2022-07-28T10:17:47.920Z,24.50
2022-07-28T10:21:31.723Z,24.50
2022-07-28T10:25:14.676Z,24.60
2022-07-28T10:28:56.464Z,24.80
2022-07-28T10:32:45.268Z,24.90
2022-07-28T10:36:27.246Z,25.10
2022-07-28T10:40:10.950Z,25.30
2022-07-28T10:43:52.916Z,25.40
2022-07-28T10:47:35.788Z,25.40
2022-07-28T10:51:19.347Z,25.30
2022-07-28T10:55:32.231Z,25.30
2022-07-28T10:59:41.594Z,25.30
2022-07-28T11:03:44.076Z,25.10
2022-07-28T11:07:26.197Z,25.00
2022-07-28T11:11:10.244Z,24.90
2022-07-28T11:14:52.003Z,24.80
2022-07-28T11:18:33.922Z,24.80
2022-07-28T11:22:19.100Z,24.90
2022-07-28T11:26:22.560Z,25.00
2022-07-28T11:30:04.698Z,25.30
2022-07-28T11:33:56.799Z,25.50
2022-07-28T11:38:00.323Z,25.60
2022-07-28T11:41:41.989Z,25.80
2022-07-28T11:45:26.421Z,25.80
2022-07-28T11:49:21.410Z,25.80
2022-07-28T11:53:03.206Z,25.90
2022-07-28T11:56:46.547Z,25.90
2022-07-28T12:00:28.610Z,26.10
2022-07-28T12:04:15.828Z,26.10
2022-07-28T12:07:59.457Z,26.10
2022-07-28T12:11:42.346Z,26.10
2022-07-28T12:15:24.290Z,26.10
2022-07-28T12:19:06.659Z,26.00
2022-07-28T12:23:03.619Z,25.90
2022-07-28T12:26:48.931Z,25.80
2022-07-28T12:30:32.657Z,25.70
2022-07-28T12:34:14.794Z,25.60
2022-07-28T12:37:56.863Z,25.50
2022-07-28T12:41:38.885Z,25.50
2022-07-28T12:45:20.858Z,25.40
2022-07-28T12:49:03.800Z,25.50
2022-07-28T12:53:02.189Z,25.50
2022-07-28T12:56:44.731Z,25.60
2022-07-28T13:00:35.172Z,25.80
2022-07-28T13:04:36.764Z,25.90
2022-07-28T13:08:18.964Z,26.20
2022-07-28T13:12:02.930Z,26.50
2022-07-28T13:15:44.858Z,26.70
2022-07-28T13:19:26.715Z,26.80
2022-07-28T13:23:08.460Z,26.90
2022-07-28T13:26:51.401Z,26.90
2022-07-28T13:30:33.342Z,27.00
2022-07-28T13:34:15.792Z,27.00
2022-07-28T13:37:58.170Z,27.10
2022-07-28T13:41:56.152Z,27.10
2022-07-28T13:45:40.585Z,27.20
2022-07-28T13:49:23.715Z,27.30
2022-07-28T13:53:05.566Z,27.50
2022-07-28T13:57:06.650Z,27.70
2022-07-28T14:00:48.449Z,28.00
2022-07-28T14:04:30.795Z,28.30
2022-07-28T14:08:18.645Z,28.50
2022-07-28T14:12:03.238Z,28.70
2022-07-28T14:15:45.270Z,28.90
2022-07-28T14:19:39.558Z,29.20
2022-07-28T14:23:21.709Z,29.40
2022-07-28T14:27:03.482Z,29.70
2022-07-28T14:30:45.297Z,29.90
2022-07-28T14:34:27.064Z,29.90
2022-07-28T14:42:11.914Z,30.80
2022-07-28T14:46:12.481Z,31.30
2022-07-28T14:49:57.877Z,31.40
2022-07-28T14:53:43.333Z,31.40
2022-07-28T14:57:48.787Z,31.90
2022-07-28T15:01:36.220Z,33.10
2022-07-28T15:05:18.292Z,34.20
2022-07-28T15:09:01.380Z,34.80
2022-07-28T15:12:43.158Z,35.10
2022-07-28T15:16:25.314Z,35.70
2022-07-28T15:20:08.145Z,36.00
2022-07-28T15:23:49.915Z,36.50
2022-07-28T15:27:33.681Z,37.00
2022-07-28T15:31:17.710Z,37.30
2022-07-28T15:35:01.845Z,37.50
2022-07-28T15:38:47.059Z,37.90
2022-07-28T15:42:29.447Z,38.80
2022-07-28T15:46:13.206Z,39.90
2022-07-28T15:49:55.172Z,40.90
2022-07-28T15:53:36.950Z,41.00
2022-07-28T15:57:19.745Z,40.60
2022-07-28T16:01:02.230Z,40.60
2022-07-28T16:04:53.532Z,40.90
2022-07-28T16:08:36.499Z,41.60
2022-07-28T16:12:18.485Z,42.50
2022-07-28T16:16:00.518Z,43.40
2022-07-28T16:19:51.960Z,44.00
2022-07-28T16:23:34.025Z,44.60
2022-07-28T16:27:15.833Z,45.30
2022-07-28T16:30:57.633Z,45.70
2022-07-28T16:34:39.482Z,46.20
2022-07-28T16:38:21.316Z,46.90
2022-07-28T16:42:03.298Z,47.50
2022-07-28T16:45:45.237Z,48.20
2022-07-28T16:49:27.119Z,48.50
2022-07-28T16:53:09.191Z,48.80
2022-07-28T16:56:51.209Z,49.00
2022-07-28T17:00:34.273Z,49.00
2022-07-28T17:04:16.758Z,49.00
2022-07-28T17:07:59.035Z,49.30
2022-07-28T17:11:42.409Z,49.30
2022-07-28T17:15:24.620Z,49.40
2022-07-28T17:19:06.485Z,49.60
2022-07-28T17:22:48.499Z,49.10
2022-07-28T17:30:33.991Z,48.20
2022-07-28T17:34:16.192Z,48.10
2022-07-28T17:37:58.399Z,47.80
2022-07-28T17:41:40.155Z,47.60
2022-07-28T17:45:21.985Z,47.40
2022-07-28T17:49:05.566Z,46.70
2022-07-28T17:52:47.494Z,45.40
2022-07-28T17:56:31.312Z,43.80
2022-07-28T18:00:13.730Z,42.30
2022-07-28T18:03:59.690Z,40.70
2022-07-28T18:07:50.118Z,39.30
2022-07-28T18:11:33.085Z,37.90
2022-07-28T18:15:14.935Z,36.60
2022-07-28T18:18:57.007Z,35.30
2022-07-28T18:22:38.767Z,34.30
2022-07-28T18:26:20.631Z,33.40
2022-07-28T18:30:03.104Z,32.60
2022-07-28T18:33:44.884Z,31.90
2022-07-28T18:37:26.637Z,31.30
2022-07-28T18:41:14.921Z,30.70
2022-07-28T18:44:56.688Z,30.20
2022-07-28T18:48:38.644Z,29.70
2022-07-28T18:52:20.517Z,29.20
2022-07-28T18:56:02.307Z,28.80
2022-07-28T18:59:47.766Z,28.30
2022-07-28T19:03:33.502Z,27.90
2022-07-28T19:07:15.989Z,27.40
2022-07-28T19:10:58.419Z,27.10
2022-07-28T19:14:40.875Z,26.80
2022-07-28T19:18:22.717Z,26.40
2022-07-28T19:22:06.487Z,26.20
2022-07-28T19:25:48.303Z,25.90
2022-07-28T19:29:30.281Z,25.60
2022-07-28T19:33:17.227Z,25.40
2022-07-28T19:37:00.789Z,25.10
2022-07-28T19:40:43.315Z,24.90
2022-07-28T19:44:25.182Z,24.70
2022-07-28T19:48:07.487Z,24.60
2022-07-28T19:51:49.251Z,24.40
2022-07-28T19:55:33.241Z,24.20
2022-07-28T19:59:15.074Z,24.00
2022-07-28T20:02:56.915Z,23.90
2022-07-28T20:06:38.759Z,23.70
2022-07-28T20:10:39.019Z,23.60
2022-07-28T20:14:20.807Z,23.40
2022-07-28T20:18:04.204Z,23.30
2022-07-28T20:21:45.875Z,23.10
2022-07-28T20:25:27.645Z,23.00
2022-07-28T20:29:09.717Z,22.90
2022-07-28T20:32:51.714Z,22.80
2022-07-28T20:36:36.844Z,22.60
2022-07-28T20:40:20.907Z,22.50
2022-07-28T20:44:27.694Z,22.40
2022-07-28T20:48:05.038Z,22.30
2022-07-28T20:51:51.201Z,22.20
2022-07-28T20:55:33.197Z,22.10
2022-07-28T20:59:15.031Z,22.00
2022-07-28T21:02:56.870Z,21.90
2022-07-28T21:06:38.924Z,21.80
2022-07-28T21:10:34.654Z,21.60
2022-07-28T21:14:17.258Z,21.50
2022-07-28T21:17:59.476Z,21.40
2022-07-28T21:21:41.259Z,21.30
2022-07-28T21:25:23.057Z,21.20
2022-07-28T21:29:12.490Z,21.10
2022-07-28T21:32:54.638Z,21.00
2022-07-28T21:36:36.463Z,20.90
2022-07-28T21:40:18.528Z,20.80
2022-07-28T21:44:04.138Z,20.70
2022-07-28T21:47:46.173Z,20.60
2022-07-28T21:51:29.256Z,20.50
2022-07-28T21:55:11.113Z,20.50
2022-07-28T21:58:55.223Z,20.40
2022-07-28T22:02:36.970Z,20.30
2022-07-28T22:06:18.897Z,20.30
2022-07-28T22:10:01.832Z,20.20
2022-07-28T22:13:44.383Z,20.20
2022-07-28T22:17:26.250Z,20.10
2022-07-28T22:21:08.148Z,20.00
2022-07-28T22:24:49.905Z,20.00
2022-07-28T22:28:32.957Z,20.00
2022-07-28T22:32:14.779Z,19.90
2022-07-28T22:35:56.616Z,19.90
2022-07-28T22:39:38.787Z,19.90
2022-07-28T22:43:20.610Z,19.80
2022-07-28T22:47:02.913Z,19.80
2022-07-28T22:50:45.998Z,19.70
2022-07-28T22:54:27.759Z,19.70
2022-07-28T22:58:09.822Z,19.70
2022-07-28T23:01:51.583Z,19.60
2022-07-28T23:05:33.406Z,19.60
2022-07-28T23:09:16.253Z,19.50
2022-07-28T23:12:58.783Z,19.40
2022-07-28T23:16:40.728Z,19.40
2022-07-28T23:20:25.945Z,19.30
2022-07-28T23:24:08.578Z,19.30
2022-07-28T23:27:51.658Z,19.30
2022-07-28T23:31:33.481Z,19.20
2022-07-28T23:35:15.365Z,19.20
2022-07-28T23:38:57.855Z,19.20
2022-07-28T23:42:39.610Z,19.10
2022-07-28T23:46:22.259Z,19.00
2022-07-28T23:50:04.729Z,19.00
2022-07-28T23:53:46.499Z,19.00
2022-07-28T23:57:30.936Z,18.90
